Time;durP1;ratioP1;P1;durP2;ratioP2;P2;SDS_P1;SDS_P2;PMS_P1;PMS_P2;Temp;Humidity;BMP_temperature;BMP_pressure;BME280_temperature;BME280_humidity;BME280_pressure;Samples;Min_cycle;Max_cycle;Signal;HPM_P1;HPM_P2
2022/05/08 00:00:54;;;;;;;19.65;4.00;;;10.50;99.90;;;;;;5096493;28;20032;-65
2022/05/08 00:03:19;;;;;;;15.55;3.70;;;10.50;99.90;;;;;;5114647;28;20060;-65
2022/05/08 00:05:45;;;;;;;20.02;4.22;;;10.40;99.90;;;;;;5096644;28;20040;-64
2022/05/08 00:08:11;;;;;;;18.20;4.15;;;10.50;99.90;;;;;;5096065;28;20054;-65
2022/05/08 00:10:36;;;;;;;23.48;4.38;;;10.40;99.90;;;;;;5114465;28;20043;-64
2022/05/08 00:13:02;;;;;;;16.65;3.95;;;10.40;99.90;;;;;;5096787;28;20601;-64
2022/05/08 00:15:28;;;;;;;18.33;4.38;;;10.30;99.90;;;;;;5096874;28;20489;-65
2022/05/08 00:17:53;;;;;;;20.10;4.30;;;10.30;99.90;;;;;;5113985;28;20456;-65
2022/05/08 00:20:19;;;;;;;19.98;5.07;;;10.30;99.90;;;;;;5114491;28;20045;-64
2022/05/08 00:22:45;;;;;;;15.98;3.97;;;10.10;99.90;;;;;;5114516;28;20040;-64
2022/05/08 00:25:12;;;;;;;19.77;5.75;;;10.00;99.90;;;;;;5114064;28;20063;-65
2022/05/08 00:27:38;;;;;;;17.55;4.63;;;10.00;99.90;;;;;;5095444;28;20127;-64
2022/05/08 00:30:04;;;;;;;18.95;4.18;;;9.90;99.90;;;;;;5096094;28;20155;-64
2022/05/08 00:32:30;;;;;;;20.20;4.85;;;10.00;99.90;;;;;;5113831;28;20040;-65
2022/05/08 00:34:56;;;;;;;16.50;4.30;;;9.90;99.90;;;;;;5114191;28;20105;-64
2022/05/08 00:37:22;;;;;;;20.35;4.55;;;10.00;99.90;;;;;;5095624;28;20031;-64
2022/05/08 00:39:48;;;;;;;19.40;4.95;;;10.10;99.90;;;;;;5096565;28;20108;-64
2022/05/08 00:42:13;;;;;;;16.88;4.43;;;10.00;99.90;;;;;;5114430;28;20062;-64
2022/05/08 00:44:39;;;;;;;15.05;3.58;;;9.90;99.90;;;;;;5096757;28;20044;-65
2022/05/08 00:47:05;;;;;;;12.98;3.92;;;9.80;99.90;;;;;;5113782;28;20043;-64
2022/05/08 00:49:31;;;;;;;18.85;4.35;;;9.70;99.90;;;;;;5113975;28;20461;-64
2022/05/08 00:51:57;;;;;;;19.30;4.63;;;9.70;99.90;;;;;;5114224;28;20035;-64
2022/05/08 00:54:23;;;;;;;19.02;4.65;;;9.60;99.90;;;;;;5096410;28;20047;-64
2022/05/08 00:56:49;;;;;;;16.20;4.20;;;9.50;99.90;;;;;;5095494;28;20042;-65
2022/05/08 00:59:15;;;;;;;19.25;4.35;;;9.50;99.90;;;;;;5095929;28;20047;-64
2022/05/08 01:01:40;;;;;;;17.52;4.50;;;9.50;99.90;;;;;;5079403;28;20119;-65
2022/05/08 01:04:06;;;;;;;17.55;3.92;;;9.50;99.90;;;;;;5096346;28;20048;-65
2022/05/08 01:06:32;;;;;;;17.30;4.25;;;9.40;99.90;;;;;;5095660;28;20035;-65
2022/05/08 01:08:58;;;;;;;20.55;4.07;;;9.40;99.90;;;;;;5113830;28;20478;-66
2022/05/08 01:11:24;;;;;;;21.17;3.95;;;9.40;99.90;;;;;;5113768;28;20071;-64
2022/05/08 01:13:49;;;;;;;17.65;4.15;;;9.40;99.90;;;;;;5114027;28;20040;-65
2022/05/08 01:16:17;;;;;;;25.23;4.53;;;9.30;99.90;;;;;;5113607;28;20043;-64
2022/05/08 01:18:44;;;;;;;20.35;4.70;;;9.40;99.90;;;;;;5079039;28;20040;-65
2022/05/08 01:21:14;;;;;;;17.67;4.13;;;9.40;99.90;;;;;;5114191;28;20069;-66
2022/05/08 01:23:41;;;;;;;17.05;4.82;;;9.20;99.90;;;;;;5098778;28;20066;-65
2022/05/08 01:26:07;;;;;;;20.05;4.53;;;9.10;99.90;;;;;;5117553;28;20047;-64
2022/05/08 01:28:33;;;;;;;14.93;4.72;;;9.10;99.90;;;;;;5099092;28;20062;-64
2022/05/08 01:30:59;;;;;;;20.08;5.43;;;9.10;99.90;;;;;;5099505;28;20039;-66
2022/05/08 01:33:25;;;;;;;19.92;4.22;;;9.10;99.90;;;;;;5099452;28;20104;-65
2022/05/08 01:35:51;;;;;;;19.92;5.00;;;9.00;99.90;;;;;;5117626;28;20361;-63
2022/05/08 01:38:19;;;;;;;18.02;4.43;;;9.00;99.90;;;;;;5117008;28;20031;-63
2022/05/08 01:40:45;;;;;;;15.95;4.60;;;9.00;99.90;;;;;;5099264;28;20381;-62
2022/05/08 01:43:12;;;;;;;22.77;4.88;;;8.90;99.90;;;;;;5117434;28;20039;-64
2022/05/08 01:45:38;;;;;;;18.33;4.68;;;8.90;99.90;;;;;;5117383;28;20036;-63
2022/05/08 01:48:23;;;;;;;15.63;4.82;;;8.80;99.90;;;;;;5116615;28;20082;-63
2022/05/08 01:50:59;;;;;;;22.17;5.45;;;8.80;99.90;;;;;;5117205;28;20043;-65
2022/05/08 01:53:35;;;;;;;19.33;4.97;;;8.90;99.90;;;;;;5099067;28;20039;-64
2022/05/08 01:56:02;;;;;;;13.68;4.13;;;8.70;99.90;;;;;;5098969;28;20526;-65
2022/05/08 01:58:29;;;;;;;23.52;6.07;;;8.70;99.90;;;;;;5117009;28;20035;-65
2022/05/08 02:00:56;;;;;;;18.45;5.55;;;8.70;99.90;;;;;;5116894;28;20570;-64
2022/05/08 02:03:24;;;;;;;20.40;4.90;;;8.70;99.90;;;;;;5116873;28;20048;-64
2022/05/08 02:05:50;;;;;;;16.15;4.95;;;8.60;99.90;;;;;;5098930;28;20040;-64
2022/05/08 02:08:16;;;;;;;19.13;5.43;;;8.60;99.90;;;;;;5116319;28;20027;-64
2022/05/08 02:10:42;;;;;;;20.52;5.78;;;8.60;99.90;;;;;;5081952;28;20048;-64
2022/05/08 02:13:08;;;;;;;20.50;5.38;;;8.50;99.90;;;;;;5099011;28;20042;-64
2022/05/08 02:15:35;;;;;;;22.90;5.72;;;8.50;99.90;;;;;;5098710;28;20061;-65
2022/05/08 02:18:02;;;;;;;21.35;5.57;;;8.50;99.90;;;;;;5097910;28;20369;-64
2022/05/08 02:20:28;;;;;;;21.42;4.90;;;8.40;99.90;;;;;;5098567;28;20044;-64
2022/05/08 02:22:54;;;;;;;19.48;5.93;;;8.30;99.90;;;;;;5098547;28;20047;-64
2022/05/08 02:25:20;;;;;;;22.48;5.95;;;8.20;99.90;;;;;;5094893;28;20088;-64
2022/05/08 02:27:49;;;;;;;15.80;4.88;;;8.10;99.90;;;;;;5094782;28;20336;-64
2022/05/08 02:30:17;;;;;;;16.63;5.25;;;8.10;99.90;;;;;;5095845;28;20080;-65
2022/05/08 02:32:43;;;;;;;20.35;5.38;;;8.10;99.90;;;;;;5094834;28;20039;-64
2022/05/08 02:35:10;;;;;;;19.27;5.90;;;8.00;99.90;;;;;;5096282;28;20407;-64
2022/05/08 02:37:39;;;;;;;19.52;5.88;;;8.00;99.90;;;;;;5094271;28;20119;-63
2022/05/08 02:40:08;;;;;;;17.40;5.18;;;8.00;99.90;;;;;;5095887;28;20036;-64
2022/05/08 02:42:35;;;;;;;19.20;5.75;;;8.00;99.90;;;;;;5094855;28;20283;-64
2022/05/08 02:45:01;;;;;;;17.40;5.82;;;8.00;99.90;;;;;;5095668;28;20111;-65
2022/05/08 02:47:27;;;;;;;18.63;5.40;;;8.00;99.90;;;;;;5093859;28;20115;-64
2022/05/08 02:49:52;;;;;;;16.88;5.03;;;8.00;99.90;;;;;;5094499;28;20055;-64
2022/05/08 02:52:19;;;;;;;23.42;6.18;;;8.00;99.90;;;;;;5095736;28;20047;-65
2022/05/08 02:54:44;;;;;;;16.55;5.05;;;8.00;99.90;;;;;;5095445;28;20071;-64
2022/05/08 02:59:54;;;;;;;19.75;5.57;;;8.00;99.90;;;;;;5095653;28;20071;-64
2022/05/08 03:02:20;;;;;;;21.50;5.82;;;8.00;99.90;;;;;;5094155;28;20082;-64
2022/05/08 03:04:45;;;;;;;20.42;5.72;;;7.90;99.90;;;;;;5095276;28;20040;-64
2022/05/08 03:07:12;;;;;;;23.15;5.57;;;7.90;99.90;;;;;;5093777;28;20040;-65
2022/05/08 03:09:37;;;;;;;16.27;5.10;;;8.00;99.90;;;;;;5094299;28;20040;-64
2022/05/08 03:12:04;;;;;;;15.18;5.30;;;8.00;99.90;;;;;;5094289;28;20158;-64
2022/05/08 03:14:30;;;;;;;19.63;4.85;;;7.90;99.90;;;;;;5095357;28;20044;-66
2022/05/08 03:16:56;;;;;;;18.35;5.45;;;7.90;99.90;;;;;;5093856;28;20442;-64
2022/05/08 03:19:22;;;;;;;23.58;5.75;;;7.90;99.90;;;;;;5073735;28;20067;-65
2022/05/08 03:21:51;;;;;;;17.42;5.40;;;7.80;99.90;;;;;;5057149;28;20055;-64
2022/05/08 03:24:17;;;;;;;18.15;6.13;;;7.80;99.90;;;;;;5082667;28;20390;-64
2022/05/08 03:26:43;;;;;;;17.88;5.20;;;7.80;99.90;;;;;;5076630;28;20050;-64
2022/05/08 03:29:08;;;;;;;16.90;5.32;;;7.80;99.90;;;;;;5096300;28;20039;-64
2022/05/08 03:31:34;;;;;;;16.67;4.68;;;7.80;99.90;;;;;;5097175;28;20476;-64
2022/05/08 03:34:00;;;;;;;18.70;5.05;;;7.80;99.90;;;;;;5115026;28;20078;-66
2022/05/08 03:36:27;;;;;;;17.50;5.75;;;7.70;99.90;;;;;;5096862;28;20517;-64
2022/05/08 03:38:52;;;;;;;17.02;5.20;;;7.70;99.90;;;;;;5096758;28;20215;-64
2022/05/08 03:41:19;;;;;;;14.35;4.55;;;7.60;99.90;;;;;;5115128;28;20132;-64
2022/05/08 03:43:46;;;;;;;15.55;4.93;;;7.60;99.90;;;;;;5115133;28;20049;-64
2022/05/08 03:46:13;;;;;;;17.02;5.85;;;7.60;99.90;;;;;;5114245;28;20043;-64
2022/05/08 03:48:39;;;;;;;14.70;4.88;;;7.60;99.90;;;;;;5080059;28;20039;-64
2022/05/08 03:51:05;;;;;;;17.05;4.95;;;7.70;99.90;;;;;;5096854;28;20092;-64
2022/05/08 03:53:31;;;;;;;14.02;5.00;;;7.60;99.90;;;;;;5097056;28;20040;-64
2022/05/08 03:55:56;;;;;;;18.63;5.20;;;7.60;99.90;;;;;;5114641;28;20360;-65
2022/05/08 03:58:22;;;;;;;13.52;4.57;;;7.70;99.90;;;;;;5114633;28;20130;-64
2022/05/08 04:00:48;;;;;;;21.30;5.10;;;7.70;99.90;;;;;;5096697;28;20145;-64
2022/05/08 04:03:13;;;;;;;15.57;5.13;;;7.60;99.90;;;;;;5114785;28;20062;-64
2022/05/08 04:05:39;;;;;;;20.40;5.20;;;7.60;99.90;;;;;;5114669;28;20047;-64
2022/05/08 04:08:05;;;;;;;13.70;4.68;;;7.70;99.90;;;;;;5096328;28;20054;-64
2022/05/08 04:10:33;;;;;;;16.67;4.35;;;7.70;99.90;;;;;;5096542;28;20122;-64
2022/05/08 04:12:59;;;;;;;17.80;5.00;;;7.70;99.90;;;;;;5114780;28;20092;-64
2022/05/08 04:18:09;;;;;;;15.27;5.28;;;7.80;99.90;;;;;;5114460;28;20043;-63
2022/05/08 04:20:35;;;;;;;16.58;5.10;;;7.80;99.90;;;;;;5114575;28;20054;-64
2022/05/08 04:25:46;;;;;;;18.30;5.43;;;7.70;99.90;;;;;;5114118;28;20131;-63
2022/05/08 04:28:11;;;;;;;17.25;4.93;;;7.60;99.90;;;;;;5114387;28;20123;-64
2022/05/08 04:30:37;;;;;;;16.63;5.15;;;7.60;99.90;;;;;;5114364;28;20035;-65
2022/05/08 04:33:03;;;;;;;19.00;5.00;;;7.60;99.90;;;;;;5114488;28;20043;-64
2022/05/08 04:35:29;;;;;;;17.65;5.38;;;7.70;99.90;;;;;;5114464;28;20032;-63
2022/05/08 04:37:54;;;;;;;13.77;5.07;;;7.70;99.90;;;;;;5113808;28;20361;-65
2022/05/08 04:40:20;;;;;;;13.45;5.07;;;8.10;99.90;;;;;;5114366;28;20511;-65
2022/05/08 04:42:46;;;;;;;16.83;4.95;;;8.40;99.90;;;;;;5114153;28;20070;-64
2022/05/08 04:45:12;;;;;;;17.25;5.22;;;8.70;99.90;;;;;;5114477;28;20133;-64
2022/05/08 04:47:37;;;;;;;20.95;5.10;;;8.70;99.90;;;;;;5113652;28;20349;-64
2022/05/08 04:50:03;;;;;;;15.93;4.65;;;8.90;99.90;;;;;;5114170;28;20150;-65
2022/05/08 04:52:29;;;;;;;17.50;5.80;;;8.80;99.90;;;;;;5096444;28;20135;-63
2022/05/08 04:54:54;;;;;;;17.30;4.60;;;8.80;99.90;;;;;;5096396;28;20432;-64
2022/05/08 04:57:20;;;;;;;15.15;4.90;;;8.90;99.90;;;;;;5114797;28;20041;-65
2022/05/08 04:59:45;;;;;;;14.50;4.30;;;9.10;99.90;;;;;;5100145;28;20333;-64
2022/05/08 05:02:12;;;;;;;17.48;4.72;;;9.50;99.90;;;;;;5099969;28;20040;-64
2022/05/08 05:04:38;;;;;;;12.63;4.63;;;10.00;99.90;;;;;;5118236;28;20043;-64
2022/05/08 05:07:03;;;;;;;17.90;4.88;;;10.50;99.90;;;;;;5117545;28;20039;-64
2022/05/08 05:09:29;;;;;;;14.63;3.85;;;11.00;99.90;;;;;;5118007;28;20043;-64
2022/05/08 05:11:54;;;;;;;15.13;4.10;;;11.50;99.90;;;;;;5099867;28;20467;-64
2022/05/08 05:14:20;;;;;;;11.98;4.35;;;11.70;99.90;;;;;;5118041;28;20039;-65
2022/05/08 05:16:46;;;;;;;14.82;4.80;;;12.10;99.90;;;;;;5065902;28;20071;-64
2022/05/08 05:19:12;;;;;;;17.27;4.80;;;12.20;99.90;;;;;;5117895;28;20086;-64
2022/05/08 05:21:37;;;;;;;15.18;3.90;;;12.20;99.90;;;;;;5117704;28;20039;-64
2022/05/08 05:24:03;;;;;;;13.70;3.80;;;12.60;99.90;;;;;;5099635;28;20072;-64
2022/05/08 05:26:29;;;;;;;16.10;4.45;;;12.60;99.90;;;;;;5099485;28;20056;-64
2022/05/08 05:28:55;;;;;;;15.18;3.95;;;12.90;99.90;;;;;;5099217;28;20448;-64
2022/05/08 05:31:20;;;;;;;16.67;4.10;;;13.20;99.90;;;;;;5117778;28;20121;-64
2022/05/08 05:33:48;;;;;;;14.93;3.83;;;13.70;99.90;;;;;;5117454;28;20189;-64
2022/05/08 05:36:14;;;;;;;16.25;4.18;;;13.90;99.90;;;;;;5117266;28;20118;-64
2022/05/08 05:38:40;;;;;;;13.90;4.13;;;14.30;99.90;;;;;;5117191;28;20075;-64
2022/05/08 05:41:06;;;;;;;13.32;4.18;;;14.40;99.90;;;;;;5117695;28;20448;-63
2022/05/08 05:43:34;;;;;;;13.23;3.58;;;14.50;99.90;;;;;;5117283;28;20116;-64
2022/05/08 05:48:43;;;;;;;12.10;3.55;;;15.00;99.90;;;;;;5098993;28;20056;-64
2022/05/08 05:51:09;;;;;;;12.05;3.45;;;15.20;99.90;;;;;;5117420;28;20044;-64
2022/05/08 05:53:35;;;;;;;13.07;3.63;;;15.50;99.90;;;;;;5117104;28;20036;-64
2022/05/08 05:56:01;;;;;;;12.13;3.25;;;15.10;99.90;;;;;;5081899;28;20036;-64
2022/05/08 05:58:27;;;;;;;12.20;3.10;;;15.20;99.90;;;;;;5116914;28;20118;-64
2022/05/08 06:00:52;;;;;;;9.52;3.20;;;15.60;99.90;;;;;;5117183;28;20040;-64
2022/05/08 06:03:18;;;;;;;9.40;3.15;;;16.30;99.90;;;;;;5098741;28;20046;-63
2022/05/08 06:05:44;;;;;;;10.18;3.15;;;16.20;99.90;;;;;;5081701;28;20126;-63
2022/05/08 06:08:09;;;;;;;9.13;3.45;;;16.20;99.90;;;;;;5081702;28;20043;-65
2022/05/08 06:10:36;;;;;;;9.25;2.83;;;16.10;99.90;;;;;;5116588;28;20089;-63
2022/05/08 06:13:02;;;;;;;10.95;2.67;;;16.30;99.90;;;;;;5116679;28;20039;-65
2022/05/08 06:15:28;;;;;;;10.90;3.13;;;17.00;99.80;;;;;;5110106;28;20043;-64
2022/05/08 06:17:55;;;;;;;10.35;2.80;;;16.30;99.50;;;;;;5100113;28;20032;-64
2022/05/08 06:20:21;;;;;;;9.50;2.60;;;16.90;99.30;;;;;;5077864;28;20139;-64
2022/05/08 06:22:46;;;;;;;9.85;3.03;;;17.00;99.50;;;;;;5077730;28;20516;-64
2022/05/08 06:25:12;;;;;;;8.85;2.72;;;16.40;99.60;;;;;;5074147;28;20076;-65
2022/05/08 06:27:38;;;;;;;10.70;2.50;;;16.60;99.50;;;;;;5075417;28;20052;-63
2022/05/08 06:30:05;;;;;;;9.23;2.60;;;16.90;99.30;;;;;;5075430;28;20777;-64
2022/05/08 06:32:30;;;;;;;10.30;2.65;;;17.10;98.80;;;;;;5075350;28;20103;-64
2022/05/08 06:34:56;;;;;;;9.27;2.65;;;17.00;98.80;;;;;;5075586;28;20560;-64
2022/05/08 06:37:22;;;;;;;6.80;2.30;;;17.00;98.60;;;;;;5077541;28;20480;-65
2022/05/08 06:39:48;;;;;;;6.57;2.40;;;16.60;98.80;;;;;;5095531;28;20119;-64
2022/05/08 06:42:13;;;;;;;6.25;2.38;;;17.00;98.20;;;;;;5094517;28;20052;-63
2022/05/08 06:44:39;;;;;;;8.07;2.58;;;17.20;97.70;;;;;;5094426;28;20032;-63
2022/05/08 06:47:05;;;;;;;9.05;2.40;;;17.30;97.80;;;;;;5094597;28;20076;-64
2022/05/08 06:49:30;;;;;;;8.35;2.38;;;17.10;98.40;;;;;;5076210;28;20036;-64
2022/05/08 06:51:56;;;;;;;7.68;1.98;;;16.90;98.00;;;;;;5074692;28;20063;-64
2022/05/08 06:54:22;;;;;;;7.63;2.10;;;17.00;97.90;;;;;;5075065;28;20170;-65
2022/05/08 06:56:47;;;;;;;7.78;2.22;;;17.10;97.00;;;;;;5074583;28;20039;-64
2022/05/08 07:01:57;;;;;;;9.07;2.20;;;17.00;97.90;;;;;;5094968;28;20050;-63
2022/05/08 07:04:23;;;;;;;7.20;1.88;;;17.40;96.70;;;;;;5095195;28;20044;-64
2022/05/08 07:06:51;;;;;;;9.40;2.10;;;16.80;96.40;;;;;;5094743;28;20040;-63
2022/05/08 07:09:22;;;;;;;9.93;2.20;;;16.40;97.60;;;;;;5077771;28;20350;-63
2022/05/08 07:11:47;;;;;;;9.30;2.13;;;16.70;97.20;;;;;;5074839;28;20036;-64
2022/05/08 07:14:15;;;;;;;10.20;2.30;;;17.00;96.80;;;;;;5073798;28;20115;-65
2022/05/08 07:16:42;;;;;;;10.55;2.40;;;17.10;96.80;;;;;;5074214;28;20048;-64
2022/05/08 07:19:07;;;;;;;5.65;2.47;;;17.10;96.70;;;;;;5091382;28;20453;-64
2022/05/08 07:21:33;;;;;;;10.05;2.00;;;16.40;97.60;;;;;;5094110;28;20162;-64
2022/05/08 07:23:59;;;;;;;5.28;1.70;;;15.60;97.60;;;;;;5100039;28;20668;-66
2022/05/08 07:26:24;;;;;;;8.95;2.17;;;15.00;98.60;;;;;;5096465;28;20372;-64
2022/05/08 07:28:50;;;;;;;10.50;2.20;;;14.50;99.50;;;;;;5097091;28;20039;-64
2022/05/08 07:31:17;;;;;;;7.53;2.05;;;14.30;99.90;;;;;;5096705;28;20036;-62
2022/05/08 07:36:12;;;;;;;9.27;1.95;;;14.30;99.90;;;;;;5097158;28;20456;-65
2022/05/08 07:36:37;;;;;;;7.00;1.95;;;14.40;99.90;;;;;;5115188;28;20062;-62
2022/05/08 07:39:02;;;;;;;7.78;2.60;;;14.20;99.90;;;;;;5114941;28;20039;-65
2022/05/08 07:41:29;;;;;;;9.77;2.50;;;13.70;99.90;;;;;;5096960;28;20043;-63
2022/05/08 07:43:56;;;;;;;7.82;1.90;;;13.50;99.90;;;;;;5063069;28;20127;-67
2022/05/08 07:46:27;;;;;;;6.18;2.08;;;13.80;99.90;;;;;;5075706;28;20125;-64
2022/05/08 07:48:53;;;;;;;7.18;2.20;;;14.30;99.90;;;;;;5099543;28;20028;-63
2022/05/08 07:51:19;;;;;;;8.65;2.40;;;14.60;99.90;;;;;;5059922;28;20048;-63
2022/05/08 07:53:45;;;;;;;7.95;2.47;;;14.90;99.90;;;;;;5094258;28;20046;-64
2022/05/08 07:56:10;;;;;;;6.18;1.90;;;14.60;99.90;;;;;;5059853;28;20128;-65
2022/05/08 07:58:36;;;;;;;5.65;1.95;;;14.50;99.90;;;;;;5107255;28;20352;-64
2022/05/08 08:01:02;;;;;;;8.10;2.22;;;14.70;99.30;;;;;;5096630;28;20035;-64
2022/05/08 08:03:30;;;;;;;9.13;2.05;;;14.60;99.40;;;;;;5096524;28;20047;-64
2022/05/08 08:05:56;;;;;;;8.43;1.90;;;14.50;99.50;;;;;;5096316;28;20050;-64
2022/05/08 08:08:25;;;;;;;6.57;1.70;;;14.10;99.90;;;;;;5096316;28;20456;-65
2022/05/08 08:10:52;;;;;;;9.63;2.03;;;13.90;99.90;;;;;;5114571;28;20048;-64
2022/05/08 08:13:21;;;;;;;9.70;2.47;;;13.70;99.90;;;;;;5114710;28;20027;-64
2022/05/08 08:15:47;;;;;;;8.73;2.03;;;13.60;99.90;;;;;;5096261;28;20065;-64
2022/05/08 08:18:14;;;;;;;6.22;1.77;;;13.80;99.90;;;;;;5102690;28;20044;-65
2022/05/08 08:20:42;;;;;;;10.20;2.03;;;13.70;99.90;;;;;;5114347;28;20047;-65
2022/05/08 08:23:09;;;;;;;6.85;1.85;;;13.50;99.90;;;;;;5087693;28;20141;-64
2022/05/08 08:25:34;;;;;;;7.93;2.17;;;13.50;99.90;;;;;;5093216;28;20067;-64
2022/05/08 08:28:01;;;;;;;8.35;1.90;;;13.60;99.90;;;;;;5096216;28;20097;-66
2022/05/08 08:30:28;;;;;;;8.82;2.03;;;13.80;99.90;;;;;;5104174;28;20040;-64
2022/05/08 08:32:53;;;;;;;12.27;2.80;;;13.90;99.90;;;;;;5111551;28;20035;-65
2022/05/08 08:35:19;;;;;;;9.27;2.00;;;14.10;99.90;;;;;;5120798;28;20046;-64
2022/05/08 08:37:44;;;;;;;9.43;1.95;;;14.20;99.90;;;;;;5079702;28;20123;-64
2022/05/08 08:40:11;;;;;;;10.55;2.00;;;14.00;99.90;;;;;;5119457;28;20139;-64
2022/05/08 08:42:40;;;;;;;6.53;1.95;;;14.20;99.90;;;;;;5101071;28;20080;-64
2022/05/08 08:48:13;;;;;;;9.02;1.92;;;14.50;99.40;;;;;;5100445;28;20126;-64
2022/05/08 08:50:38;;;;;;;7.65;2.03;;;14.50;99.20;;;;;;5116920;28;20134;-64
2022/05/08 08:53:05;;;;;;;5.75;1.92;;;14.30;99.90;;;;;;5119126;28;20173;-64
2022/05/08 08:55:32;;;;;;;6.05;1.70;;;14.30;99.70;;;;;;5100659;28;20047;-64
2022/05/08 08:58:00;;;;;;;8.50;1.80;;;14.20;99.80;;;;;;5112843;28;20028;-65
2022/05/08 09:00:27;;;;;;;6.10;1.80;;;14.60;99.30;;;;;;5080253;28;20051;-64
2022/05/08 09:02:53;;;;;;;9.63;2.13;;;14.60;99.30;;;;;;5098360;28;20042;-65
2022/05/08 09:05:23;;;;;;;7.72;1.55;;;14.80;98.40;;;;;;5080719;28;20085;-64
2022/05/08 09:07:50;;;;;;;6.50;1.92;;;15.00;98.80;;;;;;5105290;28;20036;-65
2022/05/08 09:10:21;;;;;;;7.32;2.13;;;14.90;98.70;;;;;;5120669;28;20036;-64
2022/05/08 09:12:59;;;;;;;5.85;2.05;;;14.70;99.10;;;;;;5102757;28;20062;-64
2022/05/08 09:15:27;;;;;;;6.47;1.70;;;14.60;99.40;;;;;;5120308;28;20062;-64
2022/05/08 09:18:06;;;;;;;8.55;2.33;;;14.90;99.00;;;;;;5115515;28;20032;-64
2022/05/08 09:20:41;;;;;;;7.07;1.83;;;14.90;99.10;;;;;;5100452;28;20047;-64
2022/05/08 09:23:23;;;;;;;9.70;2.60;;;15.20;98.70;;;;;;5118909;28;20561;-65
2022/05/08 09:25:56;;;;;;;11.00;2.10;;;15.20;98.90;;;;;;5120460;28;20043;-64
2022/05/08 09:28:26;;;;;;;6.50;1.85;;;15.00;99.20;;;;;;5120200;28;20113;-64
2022/05/08 09:31:03;;;;;;;8.98;2.03;;;15.30;98.30;;;;;;5093166;28;20358;-64
2022/05/08 09:33:41;;;;;;;7.00;2.03;;;15.10;98.50;;;;;;5099753;28;20488;-63
2022/05/08 09:36:11;;;;;;;6.57;2.28;;;15.20;98.50;;;;;;5081463;28;20448;-64
2022/05/08 09:38:40;;;;;;;10.07;2.10;;;15.00;98.30;;;;;;5110836;28;20103;-64
2022/05/08 09:41:06;;;;;;;6.95;1.80;;;14.80;98.40;;;;;;5099738;28;20055;-64
2022/05/08 09:43:34;;;;;;;8.25;1.95;;;14.70;98.90;;;;;;5079381;28;20042;-64
2022/05/08 09:46:01;;;;;;;9.45;2.00;;;14.60;98.90;;;;;;5096604;28;20044;-64
2022/05/08 09:48:30;;;;;;;5.40;1.92;;;14.90;98.10;;;;;;5107574;28;20039;-63
2022/05/08 09:50:59;;;;;;;9.90;2.00;;;15.20;97.50;;;;;;5096440;28;20044;-64
2022/05/08 09:53:27;;;;;;;8.40;2.50;;;15.20;97.80;;;;;;5078303;28;20035;-63
2022/05/08 09:55:58;;;;;;;8.40;2.28;;;15.30;97.80;;;;;;5097507;28;20364;-63
2022/05/08 09:58:24;;;;;;;6.95;2.00;;;15.40;98.00;;;;;;5094786;28;20050;-65
2022/05/08 10:00:56;;;;;;;8.57;2.25;;;15.60;97.60;;;;;;5071657;28;20044;-64
2022/05/08 10:03:23;;;;;;;7.57;1.98;;;15.80;97.50;;;;;;5096191;28;20369;-64
2022/05/08 10:05:50;;;;;;;8.95;2.03;;;15.90;97.00;;;;;;5077313;28;20043;-64
2022/05/08 10:08:19;;;;;;;8.15;2.53;;;15.40;97.50;;;;;;5116307;28;20458;-64
2022/05/08 10:13:53;;;;;;;9.38;2.20;;;15.40;97.80;;;;;;5098510;28;20050;-65
2022/05/08 10:16:55;;;;;;;5.55;1.75;;;15.40;98.10;;;;;;5098123;28;20452;-63
2022/05/08 10:19:27;;;;;;;6.80;2.10;;;15.40;97.90;;;;;;5116588;28;20040;-64
2022/05/08 10:21:55;;;;;;;11.38;2.25;;;15.40;98.10;;;;;;5116541;28;20046;-65
2022/05/08 10:24:31;;;;;;;8.98;2.40;;;15.60;97.80;;;;;;5116254;28;20055;-65
2022/05/08 10:27:11;;;;;;;6.45;2.40;;;15.80;97.40;;;;;;5098011;28;20358;-65
2022/05/08 10:30:01;;;;;;;9.05;2.10;;;15.80;97.50;;;;;;5079522;28;20104;-64
2022/05/08 10:32:31;;;;;;;7.65;2.20;;;15.60;97.80;;;;;;5106369;28;20031;-64
2022/05/08 10:35:15;;;;;;;5.90;1.83;;;15.80;97.70;;;;;;5112783;28;20047;-64
2022/05/08 10:37:51;;;;;;;6.78;1.95;;;16.10;97.40;;;;;;5096629;28;20057;-64
2022/05/08 10:40:23;;;;;;;6.93;2.15;;;16.20;97.30;;;;;;5095815;28;20349;-64
2022/05/08 10:42:54;;;;;;;8.13;1.98;;;16.40;96.80;;;;;;5084836;28;20036;-63
2022/05/08 10:45:32;;;;;;;5.28;1.67;;;16.30;95.80;;;;;;5093805;28;20376;-63
2022/05/08 10:48:07;;;;;;;7.22;1.90;;;16.60;96.10;;;;;;5099451;28;20058;-64
2022/05/08 10:50:35;;;;;;;10.13;1.90;;;16.90;95.40;;;;;;5096128;28;20043;-66
2022/05/08 10:53:23;;;;;;;5.10;1.70;;;16.80;95.10;;;;;;5114264;28;20053;-66
2022/05/08 10:55:49;;;;;;;5.28;1.75;;;16.70;95.50;;;;;;5094693;28;20058;-66
2022/05/08 10:58:18;;;;;;;6.47;1.88;;;16.70;95.00;;;;;;5114012;28;20040;-66
2022/05/08 11:00:44;;;;;;;7.18;2.30;;;17.00;94.70;;;;;;5115391;28;20046;-66
2022/05/08 11:03:10;;;;;;;8.93;1.90;;;17.20;94.70;;;;;;5080908;28;20035;-65
2022/05/08 11:05:38;;;;;;;8.05;1.92;;;17.30;94.80;;;;;;5096555;28;20440;-65
2022/05/08 11:08:10;;;;;;;8.38;1.83;;;17.30;95.00;;;;;;5097172;28;20134;-65
2022/05/08 11:10:37;;;;;;;9.20;2.20;;;17.20;94.70;;;;;;5115625;28;20114;-66
2022/05/08 11:13:10;;;;;;;5.40;2.00;;;17.40;94.60;;;;;;5115879;28;20301;-66
2022/05/08 11:15:46;;;;;;;6.05;1.70;;;17.30;93.90;;;;;;5097271;28;20114;-66
2022/05/08 11:18:27;;;;;;;7.15;2.20;;;17.50;93.60;;;;;;5115197;28;20395;-66
2022/05/08 11:21:01;;;;;;;8.13;2.15;;;17.30;93.80;;;;;;5115572;28;20036;-65
2022/05/08 11:23:32;;;;;;;7.40;2.20;;;17.50;93.50;;;;;;5115313;28;20038;-65
2022/05/08 11:26:00;;;;;;;6.95;2.20;;;17.40;93.50;;;;;;5097046;28;20043;-66
2022/05/08 11:28:27;;;;;;;7.20;2.10;;;17.60;93.80;;;;;;5097085;28;20418;-65
2022/05/08 11:30:54;;;;;;;6.70;2.22;;;17.60;93.40;;;;;;5097194;28;20039;-65
2022/05/08 11:36:25;;;;;;;7.13;1.73;;;17.60;93.00;;;;;;5100439;28;20036;-65
2022/05/08 11:39:03;;;;;;;8.95;2.00;;;17.60;93.00;;;;;;5115034;28;20124;-66
2022/05/08 11:41:49;;;;;;;8.55;2.15;;;17.60;92.90;;;;;;5096993;28;20035;-65
2022/05/08 11:44:15;;;;;;;7.80;2.28;;;17.60;92.60;;;;;;5096565;28;20055;-65
2022/05/08 11:46:46;;;;;;;5.93;1.77;;;17.40;93.10;;;;;;5114752;28;20066;-66
2022/05/08 11:49:20;;;;;;;8.82;2.70;;;17.70;92.40;;;;;;5096603;28;20040;-66
2022/05/08 11:51:46;;;;;;;;;;;17.50;93.10;;;;;;5097127;28;20048;-66
2022/05/08 11:54:23;;;;;;;7.40;1.95;;;17.60;92.50;;;;;;5097085;28;19916;-66
2022/05/08 11:56:51;;;;;;;9.20;2.22;;;17.70;92.40;;;;;;5079538;28;20376;-66
2022/05/08 11:59:22;;;;;;;6.85;2.00;;;17.90;91.90;;;;;;5096670;28;20114;-66
2022/05/08 12:01:53;;;;;;;8.18;2.30;;;18.00;92.00;;;;;;5096785;28;20047;-65
2022/05/08 12:04:47;;;;;;;6.97;1.77;;;17.90;92.50;;;;;;5097061;28;20042;-65
2022/05/08 12:07:13;;;;;;;5.88;2.05;;;18.00;92.70;;;;;;5082828;28;20066;-65
2022/05/08 12:09:48;;;;;;;7.88;2.10;;;18.20;92.20;;;;;;5096519;28;20040;-66
2022/05/08 12:12:25;;;;;;;6.05;1.92;;;18.20;91.80;;;;;;5096743;28;20132;-66
2022/05/08 12:14:52;;;;;;;6.72;1.80;;;17.90;91.90;;;;;;5096510;28;20040;-65
2022/05/08 12:17:17;;;;;;;8.00;2.17;;;18.00;92.30;;;;;;5114546;28;20051;-66
2022/05/08 12:19:54;;;;;;;7.18;2.13;;;17.90;91.90;;;;;;5114489;28;20047;-66
2022/05/08 12:22:24;;;;;;;9.05;2.47;;;18.20;91.00;;;;;;5114327;28;20043;-67
2022/05/08 12:24:54;;;;;;;7.50;2.47;;;18.30;90.90;;;;;;5113703;28;20046;-65
2022/05/08 12:27:20;;;;;;;6.20;2.17;;;18.30;91.40;;;;;;5096692;28;20044;-66
2022/05/08 12:29:46;;;;;;;9.35;2.30;;;18.20;90.90;;;;;;5096230;28;20079;-66
2022/05/08 12:32:15;;;;;;;7.97;2.10;;;18.20;91.20;;;;;;5114355;28;20112;-64
2022/05/08 12:34:42;;;;;;;9.55;2.35;;;18.30;90.10;;;;;;5096444;28;20399;-64
2022/05/08 12:37:12;;;;;;;8.05;2.15;;;18.00;90.40;;;;;;5109945;28;20040;-64
2022/05/08 12:39:39;;;;;;;6.90;1.90;;;18.20;90.50;;;;;;5095016;28;20448;-64
2022/05/08 12:42:05;;;;;;;5.55;1.73;;;18.30;91.00;;;;;;5093320;28;20047;-65
2022/05/08 12:44:33;;;;;;;10.90;2.22;;;18.50;89.60;;;;;;5095939;28;20100;-65
2022/05/08 12:46:59;;;;;;;10.02;2.30;;;18.60;90.70;;;;;;5092547;28;20074;-64
2022/05/08 12:49:25;;;;;;;4.97;2.33;;;18.40;90.80;;;;;;5113793;28;20050;-64
2022/05/08 12:51:51;;;;;;;7.20;2.08;;;18.50;88.90;;;;;;5114144;28;20027;-64
2022/05/08 12:54:16;;;;;;;7.53;2.00;;;18.60;88.80;;;;;;5095925;28;20040;-64
2022/05/08 12:56:44;;;;;;;6.45;1.98;;;18.40;87.40;;;;;;5095742;28;20044;-64
2022/05/08 13:01:54;;;;;;;7.15;2.15;;;18.50;89.70;;;;;;5095871;28;20054;-63
2022/05/08 13:04:20;;;;;;;5.20;2.00;;;18.40;88.70;;;;;;5113840;28;20032;-65
2022/05/08 13:06:46;;;;;;;9.95;2.33;;;18.50;90.00;;;;;;5095559;28;20411;-65
2022/05/08 13:09:13;;;;;;;7.65;2.10;;;18.60;91.20;;;;;;5079020;28;20509;-64
2022/05/08 13:11:39;;;;;;;5.00;1.92;;;18.60;90.40;;;;;;5113954;28;20418;-65
2022/05/08 13:14:05;;;;;;;7.18;2.40;;;18.70;90.00;;;;;;5078967;28;20472;-65